Time;durP1;ratioP1;P1;durP2;ratioP2;P2;SDS_P1;SDS_P2;PMS_P1;PMS_P2;Temp;Humidity;BMP_temperature;BMP_pressure;BME280_temperature;BME280_humidity;BME280_pressure;Samples;Min_cycle;Max_cycle;Signal;HPM_P1;HPM_P2
2022/05/14 00:01:50;;;;;;;2.28;2.17;;;12.30;99.90;;;;;;5014727;28;20042;-70
2022/05/14 00:04:16;;;;;;;0.40;0.40;;;12.30;99.90;;;;;;5014793;28;20057;-68
2022/05/14 00:06:42;;;;;;;0.50;0.50;;;12.30;99.90;;;;;;4996703;28;20052;-70
2022/05/14 00:09:07;;;;;;;0.50;0.50;;;12.30;99.90;;;;;;4997743;28;20046;-69
2022/05/14 00:14:19;;;;;;;0.40;0.40;;;12.30;99.90;;;;;;5015440;28;20125;-68
2022/05/14 00:16:46;;;;;;;0.40;0.40;;;12.20;99.90;;;;;;5014694;28;20477;-70
2022/05/14 00:19:12;;;;;;;4.10;1.58;;;12.10;99.90;;;;;;4997770;28;20195;-70
2022/05/14 00:21:37;;;;;;;0.65;0.43;;;12.10;99.90;;;;;;5015000;28;20045;-71
2022/05/14 00:24:06;;;;;;;0.38;0.38;;;12.10;99.90;;;;;;5018483;28;20374;-71
2022/05/14 00:26:32;;;;;;;0.40;0.40;;;12.10;99.90;;;;;;5018340;28;20506;-70
2022/05/14 00:28:59;;;;;;;0.50;0.50;;;12.00;99.90;;;;;;5018365;28;20052;-69
2022/05/14 00:31:25;;;;;;;0.30;0.30;;;12.00;99.90;;;;;;5001287;28;20453;-71
2022/05/14 00:33:50;;;;;;;0.32;0.32;;;12.00;99.90;;;;;;5001426;28;20204;-70
2022/05/14 00:36:16;;;;;;;0.40;0.40;;;12.00;99.90;;;;;;5017699;28;20394;-70
2022/05/14 00:38:42;;;;;;;1.20;0.60;;;12.00;99.90;;;;;;4983715;28;20072;-69
2022/05/14 00:41:08;;;;;;;0.50;0.50;;;11.90;99.90;;;;;;5017104;28;20041;-69
2022/05/14 00:43:47;;;;;;;1.13;1.13;;;11.90;99.90;;;;;;5018489;28;20105;-70
2022/05/14 00:46:42;;;;;;;0.40;0.40;;;11.90;99.90;;;;;;5018011;28;20449;-69
2022/05/14 00:49:08;;;;;;;0.40;0.40;;;11.90;99.90;;;;;;5009857;28;20137;-71
2022/05/14 00:51:35;;;;;;;1.30;0.77;;;11.90;99.90;;;;;;5016934;28;20370;-69
2022/05/14 00:54:10;;;;;;;0.40;0.40;;;11.90;99.90;;;;;;5017828;28;20081;-70
2022/05/14 00:56:40;;;;;;;0.40;0.40;;;11.90;99.90;;;;;;5018278;28;20116;-70
2022/05/14 00:59:10;;;;;;;0.40;0.40;;;11.90;99.90;;;;;;5000756;28;20457;-69
2022/05/14 01:01:37;;;;;;;0.30;0.30;;;11.90;99.90;;;;;;5017978;28;20045;-70
2022/05/14 01:04:03;;;;;;;0.43;0.43;;;11.80;99.90;;;;;;5017818;28;20041;-68
2022/05/14 01:06:30;;;;;;;0.73;0.73;;;11.80;99.90;;;;;;5016931;28;20088;-70
2022/05/14 01:08:59;;;;;;;0.57;0.57;;;11.90;99.90;;;;;;5017482;28;20046;-70
2022/05/14 01:11:29;;;;;;;1.15;1.05;;;11.80;99.90;;;;;;5000929;28;20042;-70
2022/05/14 01:13:55;;;;;;;0.70;0.70;;;11.90;99.90;;;;;;5000575;28;20054;-71
2022/05/14 01:16:20;;;;;;;0.55;0.55;;;11.90;99.90;;;;;;5017382;28;20115;-70
2022/05/14 01:18:46;;;;;;;0.45;0.45;;;11.90;99.90;;;;;;5017397;28;20516;-70
2022/05/14 01:21:32;;;;;;;0.73;0.70;;;11.90;99.90;;;;;;4999429;28;20084;-71
2022/05/14 01:26:53;;;;;;;0.45;0.45;;;12.00;99.90;;;;;;5017504;28;20362;-70
2022/05/14 01:29:22;;;;;;;0.50;0.50;;;12.00;99.90;;;;;;4999232;28;20505;-70
2022/05/14 01:31:49;;;;;;;0.80;0.80;;;12.00;99.90;;;;;;5017202;28;20046;-70
2022/05/14 01:34:22;;;;;;;0.50;0.50;;;12.00;99.90;;;;;;5016632;28;20100;-71
2022/05/14 01:36:48;;;;;;;1.30;0.70;;;12.00;99.90;;;;;;5017525;28;20129;-69
2022/05/14 01:39:14;;;;;;;0.63;0.63;;;12.10;99.90;;;;;;4999858;28;20128;-70
2022/05/14 01:41:40;;;;;;;0.57;0.57;;;12.00;99.90;;;;;;5016929;28;20095;-71
2022/05/14 01:44:06;;;;;;;2.05;0.68;;;11.90;99.90;;;;;;4997539;28;20449;-69
2022/05/14 01:46:32;;;;;;;0.30;0.30;;;11.90;99.90;;;;;;5016234;28;20060;-69
2022/05/14 01:48:58;;;;;;;0.55;0.55;;;11.90;99.90;;;;;;4999783;28;20046;-70
2022/05/14 01:51:24;;;;;;;0.60;0.60;;;11.90;99.90;;;;;;5015654;28;20053;-70
2022/05/14 01:53:51;;;;;;;0.85;0.73;;;11.80;99.90;;;;;;4999112;28;20042;-69
2022/05/14 01:56:17;;;;;;;0.30;0.30;;;11.80;99.90;;;;;;5016630;28;20054;-70
2022/05/14 01:58:43;;;;;;;0.65;0.47;;;11.70;99.90;;;;;;5016629;28;20069;-70
2022/05/14 02:01:11;;;;;;;0.43;0.43;;;11.70;99.90;;;;;;5016994;28;20370;-69
2022/05/14 02:03:38;;;;;;;0.90;0.90;;;11.70;99.90;;;;;;4999376;28;20128;-70
2022/05/14 02:06:05;;;;;;;0.68;0.55;;;11.70;99.90;;;;;;4999389;28;20060;-70
2022/05/14 02:08:31;;;;;;;0.55;0.55;;;11.60;99.90;;;;;;5016460;28;20125;-70
2022/05/14 02:10:57;;;;;;;0.63;0.63;;;11.60;99.90;;;;;;5016636;28;20458;-69
2022/05/14 02:13:24;;;;;;;1.25;0.63;;;11.60;99.90;;;;;;5016198;28;20430;-70
2022/05/14 02:15:50;;;;;;;0.30;0.30;;;11.50;99.90;;;;;;4999607;28;20046;-71
2022/05/14 02:18:16;;;;;;;1.88;0.50;;;11.50;99.90;;;;;;5016256;28;20054;-69
2022/05/14 02:20:42;;;;;;;2.20;0.60;;;11.40;99.90;;;;;;5016130;28;20050;-70
2022/05/14 02:23:07;;;;;;;0.95;0.73;;;11.40;99.90;;;;;;5016078;28;20096;-70
2022/05/14 02:25:33;;;;;;;0.63;0.63;;;11.30;99.90;;;;;;5015981;28;20108;-69
2022/05/14 02:27:59;;;;;;;0.30;0.30;;;11.30;99.90;;;;;;5016145;28;20063;-69
2022/05/14 02:30:25;;;;;;;0.43;0.43;;;11.20;99.90;;;;;;5016052;28;20178;-69
2022/05/14 02:32:50;;;;;;;0.47;0.47;;;11.10;99.90;;;;;;4999141;28;20045;-69
2022/05/14 02:35:16;;;;;;;0.68;0.68;;;11.10;99.90;;;;;;4998466;28;20107;-69
2022/05/14 02:37:41;;;;;;;0.50;0.50;;;11.00;99.90;;;;;;5015233;28;20115;-69
2022/05/14 02:40:07;;;;;;;0.57;0.57;;;11.10;99.90;;;;;;5015960;28;20125;-69
2022/05/14 02:42:33;;;;;;;1.52;1.42;;;11.00;99.90;;;;;;5016019;28;20045;-69
2022/05/14 02:44:58;;;;;;;0.40;0.40;;;10.90;99.90;;;;;;5015535;28;20441;-68
2022/05/14 02:47:24;;;;;;;0.65;0.57;;;10.90;99.90;;;;;;4998627;28;20081;-70
2022/05/14 02:49:49;;;;;;;4.03;0.73;;;10.90;99.90;;;;;;5016114;28;20046;-70
2022/05/14 02:52:15;;;;;;;0.63;0.63;;;10.80;99.90;;;;;;5015418;28;20421;-70
2022/05/14 02:54:41;;;;;;;0.40;0.40;;;10.70;99.90;;;;;;5015478;28;20481;-71
2022/05/14 02:57:08;;;;;;;0.40;0.40;;;10.70;99.90;;;;;;4998272;28;20104;-69
2022/05/14 02:59:33;;;;;;;1.15;1.08;;;10.70;99.90;;;;;;5015636;28;20488;-69
2022/05/14 03:01:59;;;;;;;2.20;0.95;;;10.60;99.90;;;;;;5016221;28;20046;-69
2022/05/14 03:04:28;;;;;;;4.03;0.47;;;10.50;99.90;;;;;;5015621;28;20425;-70
2022/05/14 03:06:56;;;;;;;0.80;0.60;;;10.50;99.90;;;;;;5015272;28;20042;-70
2022/05/14 03:09:22;;;;;;;0.73;0.73;;;10.40;99.90;;;;;;4998276;28;20053;-70
2022/05/14 03:11:48;;;;;;;0.60;0.60;;;10.40;99.90;;;;;;5015413;28;20041;-69
2022/05/14 03:14:15;;;;;;;0.85;0.85;;;10.40;99.90;;;;;;5015596;28;20049;-70
2022/05/14 03:16:41;;;;;;;0.73;0.73;;;10.40;99.90;;;;;;5015329;28;20450;-69
2022/05/14 03:19:07;;;;;;;5.78;0.60;;;10.40;99.90;;;;;;5015523;28;20430;-69
2022/05/14 03:21:34;;;;;;;10.73;1.90;;;10.40;99.90;;;;;;5014729;28;20057;-70
2022/05/14 03:23:59;;;;;;;0.70;0.70;;;10.40;99.90;;;;;;5015360;28;20119;-68
2022/05/14 03:26:25;;;;;;;2.15;2.05;;;10.40;99.90;;;;;;5014944;28;20046;-72
2022/05/14 03:28:50;;;;;;;0.70;0.70;;;10.40;99.90;;;;;;5014711;28;20041;-69
2022/05/14 03:31:16;;;;;;;0.65;0.65;;;10.40;99.90;;;;;;4998538;28;20487;-69
2022/05/14 03:33:41;;;;;;;0.70;0.70;;;10.40;99.90;;;;;;5015226;28;20358;-70
2022/05/14 03:36:08;;;;;;;0.60;0.60;;;10.40;99.90;;;;;;5014669;28;20038;-70
2022/05/14 03:38:34;;;;;;;1.23;1.13;;;10.40;99.90;;;;;;5011619;28;20088;-70
2022/05/14 03:41:00;;;;;;;0.70;0.70;;;10.40;99.90;;;;;;5014949;28;20055;-70
2022/05/14 03:43:25;;;;;;;0.80;0.57;;;10.40;99.90;;;;;;5014910;28;20045;-70
2022/05/14 03:45:51;;;;;;;0.70;0.70;;;10.30;99.90;;;;;;5015481;28;20042;-68
2022/05/14 03:48:17;;;;;;;1.90;0.93;;;10.30;99.90;;;;;;4998095;28;20065;-70
2022/05/14 03:50:42;;;;;;;0.88;0.77;;;10.30;99.90;;;;;;5014936;28;20058;-71
2022/05/14 03:53:08;;;;;;;0.65;0.65;;;10.30;99.90;;;;;;4997546;28;20045;-69
2022/05/14 03:55:33;;;;;;;1.52;1.42;;;10.30;99.90;;;;;;5014648;28;20369;-69
2022/05/14 03:57:59;;;;;;;1.38;0.93;;;10.30;99.90;;;;;;4984367;28;20053;-70
2022/05/14 04:00:24;;;;;;;0.40;0.40;;;10.30;99.90;;;;;;5018743;28;20061;-69
2022/05/14 04:02:50;;;;;;;0.73;0.73;;;10.40;99.90;;;;;;5018820;28;20057;-69
2022/05/14 04:05:16;;;;;;;0.50;0.50;;;10.40;99.90;;;;;;5018733;28;20042;-72
2022/05/14 04:07:43;;;;;;;0.50;0.50;;;10.50;99.90;;;;;;5001495;28;20073;-71
2022/05/14 04:10:12;;;;;;;0.40;0.40;;;10.50;99.90;;;;;;5019381;28;20424;-69
2022/05/14 04:12:38;;;;;;;1.85;1.75;;;10.60;99.90;;;;;;5018643;28;20042;-70
2022/05/14 04:15:04;;;;;;;0.82;0.82;;;10.60;99.90;;;;;;5018686;28;20048;-69
2022/05/14 04:17:30;;;;;;;1.23;1.00;;;10.70;99.90;;;;;;5001252;28;20077;-69
2022/05/14 04:19:55;;;;;;;3.05;0.95;;;10.80;99.90;;;;;;5018526;28;20081;-70
2022/05/14 04:22:21;;;;;;;0.68;0.68;;;10.80;99.90;;;;;;5018576;28;20049;-70
2022/05/14 04:24:47;;;;;;;4.38;1.75;;;10.90;99.90;;;;;;5018413;28;20070;-70
2022/05/14 04:27:12;;;;;;;1.25;1.15;;;11.00;99.90;;;;;;5001485;28;20058;-70
2022/05/14 04:29:38;;;;;;;2.47;1.02;;;11.20;99.90;;;;;;5018350;28;20096;-69
2022/05/14 04:32:04;;;;;;;0.40;0.40;;;11.30;99.90;;;;;;5001096;28;20137;-69
2022/05/14 04:34:29;;;;;;;1.75;1.48;;;11.40;99.90;;;;;;5018040;28;20408;-69
2022/05/14 04:36:55;;;;;;;0.93;0.60;;;11.50;99.90;;;;;;5018395;28;20042;-69
2022/05/14 04:39:31;;;;;;;0.82;0.82;;;11.50;99.90;;;;;;5017963;28;20042;-70
2022/05/14 04:42:01;;;;;;;0.63;0.63;;;11.60;99.90;;;;;;5017970;28;20517;-69
2022/05/14 04:44:32;;;;;;;0.88;0.88;;;11.70;99.90;;;;;;5018044;28;20050;-69
2022/05/14 04:46:58;;;;;;;1.05;0.75;;;11.80;99.90;;;;;;5017874;28;20458;-70
2022/05/14 04:49:23;;;;;;;2.45;0.75;;;11.80;99.90;;;;;;5017339;28;20048;-70
2022/05/14 04:51:49;;;;;;;0.60;0.60;;;11.90;99.90;;;;;;5000936;28;20346;-69
2022/05/14 04:54:15;;;;;;;0.65;0.60;;;12.10;99.90;;;;;;5018498;28;20129;-69
2022/05/14 04:56:42;;;;;;;1.45;1.23;;;12.20;99.90;;;;;;5017427;28;20057;-70
2022/05/14 04:59:07;;;;;;;0.50;0.50;;;12.30;99.90;;;;;;5018047;28;20104;-70
2022/05/14 05:01:33;;;;;;;5.95;1.50;;;12.40;99.90;;;;;;5018036;28;20136;-70
2022/05/14 05:03:59;;;;;;;0.50;0.50;;;12.40;99.90;;;;;;5017491;28;20050;-71
2022/05/14 05:06:25;;;;;;;0.50;0.50;;;12.50;99.90;;;;;;5017948;28;20177;-69
2022/05/14 05:08:52;;;;;;;0.57;0.55;;;12.50;99.90;;;;;;5017760;28;20054;-69
2022/05/14 05:11:22;;;;;;;0.60;0.60;;;12.50;99.90;;;;;;5017149;28;20049;-69
2022/05/14 05:13:48;;;;;;;0.40;0.40;;;12.50;99.90;;;;;;5017717;28;20045;-71
2022/05/14 05:16:13;;;;;;;0.50;0.50;;;12.50;99.90;;;;;;5017700;28;20068;-70
2022/05/14 05:18:39;;;;;;;0.90;0.88;;;12.50;99.90;;;;;;5017878;28;20045;-69
2022/05/14 05:21:06;;;;;;;1.02;0.73;;;12.50;99.90;;;;;;4999433;28;20053;-69
2022/05/14 05:23:33;;;;;;;0.75;0.75;;;12.60;99.90;;;;;;5000044;28;20054;-68
2022/05/14 05:25:59;;;;;;;0.45;0.45;;;13.10;99.90;;;;;;5017867;28;20038;-70
2022/05/14 05:28:27;;;;;;;1.02;0.95;;;14.20;99.90;;;;;;5017258;28;20469;-70
2022/05/14 05:30:53;;;;;;;0.50;0.50;;;15.40;99.90;;;;;;5017736;28;20373;-71
2022/05/14 05:33:23;;;;;;;0.47;0.47;;;16.00;99.90;;;;;;5016724;28;20045;-70
2022/05/14 05:35:49;;;;;;;1.60;1.08;;;16.40;99.90;;;;;;5017253;28;20045;-69
2022/05/14 05:38:16;;;;;;;1.13;0.90;;;16.90;99.90;;;;;;5016921;28;20061;-71
2022/05/14 05:40:42;;;;;;;0.30;0.30;;;17.00;99.90;;;;;;5016923;28;20038;-69
2022/05/14 05:43:09;;;;;;;0.30;0.30;;;16.80;99.90;;;;;;5017437;28;20046;-69
2022/05/14 05:45:36;;;;;;;1.60;0.70;;;16.50;99.90;;;;;;5017299;28;20176;-68
2022/05/14 05:48:01;;;;;;;0.43;0.43;;;16.20;99.90;;;;;;5015990;28;20058;-68
2022/05/14 05:50:27;;;;;;;1.95;1.33;;;15.90;99.90;;;;;;5016878;28;20046;-68
2022/05/14 05:52:54;;;;;;;0.60;0.55;;;15.80;99.90;;;;;;5016807;28;20042;-69
2022/05/14 05:58:05;;;;;;;0.75;0.40;;;15.50;99.90;;;;;;5016216;28;20473;-69
2022/05/14 06:00:31;;;;;;;4.28;0.82;;;15.40;99.90;;;;;;5016017;28;20582;-68
2022/05/14 06:02:57;;;;;;;0.63;0.50;;;15.40;99.90;;;;;;5016130;28;20466;-67
2022/05/14 06:05:23;;;;;;;1.25;1.13;;;15.40;99.90;;;;;;4999447;28;20492;-69
2022/05/14 06:07:49;;;;;;;1.08;0.98;;;15.40;99.90;;;;;;5016801;28;20050;-68
2022/05/14 06:10:18;;;;;;;0.68;0.68;;;15.30;99.90;;;;;;5016854;28;20479;-67
2022/05/14 06:12:46;;;;;;;4.35;2.70;;;15.50;99.90;;;;;;5016687;28;20042;-67
2022/05/14 06:17:48;;;;;;;1.25;0.88;;;15.70;99.90;;;;;;5044231;23;20134;-69
2022/05/14 06:20:15;;;;;;;0.68;0.52;;;15.90;99.90;;;;;;4959221;28;20371;-69
2022/05/14 06:22:41;;;;;;;0.57;0.57;;;16.10;99.90;;;;;;4977233;28;20058;-69
2022/05/14 06:25:08;;;;;;;0.55;0.50;;;16.40;99.90;;;;;;4977632;28;20463;-68
2022/05/14 06:27:33;;;;;;;13.68;4.03;;;16.50;99.90;;;;;;4956846;28;20114;-68
2022/05/14 06:29:59;;;;;;;5.30;0.88;;;16.80;99.90;;;;;;4959933;28;20050;-66
2022/05/14 06:32:24;;;;;;;0.40;0.40;;;17.00;99.90;;;;;;4986186;28;20066;-71
2022/05/14 06:34:50;;;;;;;0.77;0.68;;;17.70;99.90;;;;;;4996467;28;20062;-70
2022/05/14 06:37:16;;;;;;;1.23;1.10;;;18.30;99.90;;;;;;4996296;28;20407;-70
2022/05/14 06:39:42;;;;;;;1.10;1.10;;;19.20;99.90;;;;;;4996188;28;20056;-70
2022/05/14 06:42:08;;;;;;;1.65;1.05;;;19.60;99.90;;;;;;4996241;28;20049;-70
2022/05/14 06:44:34;;;;;;;5.00;2.40;;;20.10;99.90;;;;;;4996679;28;20050;-70
2022/05/14 06:46:59;;;;;;;0.38;0.38;;;20.40;99.90;;;;;;4996262;28;20050;-71
2022/05/14 06:49:25;;;;;;;2.03;0.50;;;21.10;99.90;;;;;;4996284;28;20108;-69
2022/05/14 06:51:52;;;;;;;0.40;0.40;;;21.80;99.90;;;;;;4977569;28;20042;-70
2022/05/14 06:54:20;;;;;;;0.52;0.52;;;22.50;99.90;;;;;;4992504;28;20167;-69
2022/05/14 06:56:47;;;;;;;3.33;2.25;;;23.00;99.80;;;;;;4996915;28;20088;-69
2022/05/14 06:59:14;;;;;;;1.35;0.40;;;23.20;97.70;;;;;;4999084;28;20086;-68
2022/05/14 07:01:43;;;;;;;0.50;0.40;;;23.80;97.90;;;;;;4995658;28;20078;-70
2022/05/14 07:06:56;;;;;;;8.35;2.33;;;24.50;96.50;;;;;;4980175;28;20066;-71
2022/05/14 07:09:26;;;;;;;0.63;0.50;;;24.40;92.60;;;;;;4976290;28;20042;-70
2022/05/14 07:11:59;;;;;;;0.60;0.55;;;24.50;92.10;;;;;;4976650;28;20126;-70
2022/05/14 07:14:26;;;;;;;0.30;0.30;;;24.50;91.00;;;;;;4976494;28;20375;-70
2022/05/14 07:16:53;;;;;;;0.75;0.63;;;24.40;91.20;;;;;;4976407;28;20368;-71
2022/05/14 07:19:20;;;;;;;0.85;0.60;;;24.60;88.40;;;;;;4976434;28;20049;-73
2022/05/14 07:21:47;;;;;;;0.95;0.40;;;24.40;89.40;;;;;;4976316;28;20062;-71
2022/05/14 07:24:16;;;;;;;0.93;0.35;;;24.20;90.00;;;;;;4988511;28;20395;-74
2022/05/14 07:26:43;;;;;;;0.20;0.20;;;24.50;87.30;;;;;;4992426;28;20081;-69
2022/05/14 07:29:12;;;;;;;2.40;1.90;;;25.00;84.40;;;;;;4995443;28;20046;-71
2022/05/14 07:31:39;;;;;;;0.77;0.25;;;24.20;83.30;;;;;;4994233;28;20088;-70
2022/05/14 07:34:06;;;;;;;0.38;0.38;;;23.30;88.20;;;;;;4996053;28;20050;-70
2022/05/14 07:36:36;;;;;;;3.10;0.70;;;22.40;91.40;;;;;;4978275;28;20054;-70
2022/05/14 07:39:04;;;;;;;0.75;0.40;;;21.90;92.00;;;;;;4995754;28;20105;-72
2022/05/14 07:41:31;;;;;;;0.30;0.30;;;21.90;92.30;;;;;;4995579;28;20050;-70
2022/05/14 07:43:58;;;;;;;0.30;0.30;;;22.10;91.50;;;;;;4995186;28;20125;-71
2022/05/14 07:46:29;;;;;;;0.15;0.15;;;22.70;90.40;;;;;;4995526;28;20046;-70
2022/05/14 07:48:57;;;;;;;2.92;1.15;;;22.90;89.20;;;;;;4994946;28;20125;-69
2022/05/14 07:51:23;;;;;;;0.70;0.70;;;23.00;88.40;;;;;;4995696;28;20369;-71
2022/05/14 07:53:49;;;;;;;3.28;0.98;;;23.40;89.00;;;;;;4995388;28;20113;-70
2022/05/14 07:56:14;;;;;;;0.75;0.50;;;23.50;86.10;;;;;;4997734;28;20054;-71
2022/05/14 07:58:43;;;;;;;1.88;1.58;;;23.70;84.90;;;;;;4986355;28;20454;-70
2022/05/14 08:01:09;;;;;;;0.47;0.40;;;23.60;84.40;;;;;;5007071;28;20042;-72
2022/05/14 08:03:34;;;;;;;2.35;1.13;;;23.90;82.50;;;;;;4995315;28;20054;-71
2022/05/14 08:06:00;;;;;;;0.98;0.63;;;24.30;84.80;;;;;;4978021;28;20410;-72
2022/05/14 08:08:26;;;;;;;0.30;0.30;;;24.30;79.00;;;;;;4978227;28;20129;-71
2022/05/14 08:10:52;;;;;;;0.10;0.10;;;24.20;83.40;;;;;;4995241;28;20039;-71
2022/05/14 08:13:20;;;;;;;0.40;0.40;;;24.10;77.90;;;;;;4995124;28;20112;-72
2022/05/14 08:15:47;;;;;;;0.43;0.40;;;24.10;81.10;;;;;;4994738;28;20492;-72
2022/05/14 08:18:14;;;;;;;0.10;0.10;;;24.50;81.90;;;;;;4993815;28;20453;-72
2022/05/14 08:20:40;;;;;;;2.47;2.28;;;25.20;78.40;;;;;;4994829;28;20054;-73
2022/05/14 08:25:52;;;;;;;0.32;0.32;;;25.30;74.00;;;;;;4995169;28;20059;-72
2022/05/14 08:28:18;;;;;;;7.93;1.25;;;25.60;76.20;;;;;;4996045;28;20038;-71
2022/05/14 08:30:45;;;;;;;1.10;0.47;;;25.60;74.30;;;;;;4995830;28;20467;-73
2022/05/14 08:33:11;;;;;;;0.13;0.10;;;25.40;75.70;;;;;;4995102;28;20371;-70
2022/05/14 08:35:38;;;;;;;0.80;0.30;;;25.40;75.80;;;;;;4995014;28;20413;-71
2022/05/14 08:38:04;;;;;;;1.67;0.28;;;25.20;71.20;;;;;;4995178;28;20038;-69
2022/05/14 08:40:40;;;;;;;0.77;0.55;;;25.10;72.90;;;;;;4978329;28;20395;-68
2022/05/14 08:43:14;;;;;;;1.10;0.75;;;25.30;74.20;;;;;;4995799;28;20046;-69
2022/05/14 08:45:40;;;;;;;3.08;1.35;;;25.60;75.00;;;;;;4998429;28;20255;-69
2022/05/14 08:48:14;;;;;;;0.75;0.40;;;24.60;73.90;;;;;;4998168;28;20137;-71
2022/05/14 08:50:41;;;;;;;1.10;0.77;;;23.70;77.20;;;;;;4998299;28;20061;-73
2022/05/14 08:53:11;;;;;;;3.65;0.80;;;24.00;77.70;;;;;;4998471;28;20121;-72
2022/05/14 08:55:46;;;;;;;0.60;0.60;;;23.70;77.30;;;;;;4998722;28;20137;-71
2022/05/14 08:58:29;;;;;;;0.10;0.10;;;23.30;78.70;;;;;;4998267;28;20074;-74
2022/05/14 09:01:01;;;;;;;;;;;22.90;82.50;;;;;;4992944;28;20050;-71
2022/05/14 09:03:27;;;;;;;0.85;0.60;;;22.60;81.00;;;;;;4981207;28;19984;-71
2022/05/14 09:05:58;;;;;;;0.10;0.10;;;22.50;84.10;;;;;;4998248;28;20082;-71
2022/05/14 09:08:23;;;;;;;3.03;1.55;;;22.90;83.80;;;;;;4997726;28;20073;-69
2022/05/14 09:11:00;;;;;;;0.65;0.65;;;23.60;83.70;;;;;;4998023;28;20449;-68
2022/05/14 09:13:27;;;;;;;0.25;0.25;;;23.80;79.00;;;;;;4997823;28;20094;-70
2022/05/14 09:15:59;;;;;;;0.47;0.47;;;23.60;76.20;;;;;;4997386;28;20073;-67
2022/05/14 09:18:33;;;;;;;0.55;0.55;;;23.60;76.10;;;;;;4997929;28;20054;-68
2022/05/14 09:21:02;;;;;;;0.38;0.38;;;23.70;76.60;;;;;;4997713;28;20054;-68
2022/05/14 09:23:41;;;;;;;0.20;0.20;;;24.00;76.80;;;;;;4980435;28;20133;-69
2022/05/14 09:26:32;;;;;;;1.05;0.73;;;23.80;76.20;;;;;;4997920;28;20583;-68
2022/05/14 09:29:11;;;;;;;1.75;1.40;;;23.60;78.50;;;;;;4997458;28;20081;-69
2022/05/14 09:31:36;;;;;;;0.77;0.55;;;23.00;77.80;;;;;;4997735;28;20085;-68
2022/05/14 09:34:14;;;;;;;9.07;0.52;;;22.70;79.40;;;;;;4997802;28;20081;-70
2022/05/14 09:36:42;;;;;;;0.10;0.10;;;22.60;81.50;;;;;;4995690;28;20046;-69
2022/05/14 09:39:15;;;;;;;1.35;0.77;;;22.60;81.40;;;;;;5013904;28;20038;-68
2022/05/14 09:41:53;;;;;;;0.30;0.30;;;22.80;79.10;;;;;;5016585;28;20149;-68
2022/05/14 09:44:47;;;;;;;0.40;0.40;;;22.70;78.90;;;;;;4998052;28;20086;-66
2022/05/14 09:47:16;;;;;;;12.95;0.63;;;23.20;77.40;;;;;;4977025;28;20125;-66
2022/05/14 09:49:53;;;;;;;1.10;0.60;;;22.90;74.60;;;;;;4996045;28;20133;-68
2022/05/14 09:52:24;;;;;;;0.63;0.63;;;22.70;75.10;;;;;;4980273;28;20128;-66
2022/05/14 09:54:52;;;;;;;2.75;1.65;;;22.30;79.10;;;;;;4979466;28;20148;-66
2022/05/14 09:57:58;;;;;;;1.00;0.65;;;22.10;80.40;;;;;;4993117;28;20035;-67
2022/05/14 10:00:36;;;;;;;0.80;0.55;;;22.10;80.50;;;;;;4936703;29;20059;-66
2022/05/14 10:03:20;;;;;;;0.77;0.60;;;22.10;80.80;;;;;;4937108;29;20043;-67
2022/05/14 10:06:19;;;;;;;2.85;0.38;;;21.80;82.70;;;;;;4977237;28;20050;-67
2022/05/14 10:09:15;;;;;;;1.10;0.52;;;22.10;81.80;;;;;;4996838;28;20049;-67
2022/05/14 10:11:45;;;;;;;3.13;1.15;;;22.00;80.80;;;;;;5012266;28;20104;-67
2022/05/14 10:14:34;;;;;;;0.85;0.82;;;21.80;81.70;;;;;;4996777;28;20081;-67
2022/05/14 10:17:23;;;;;;;0.98;0.88;;;21.40;81.30;;;;;;4996686;28;20077;-67
2022/05/14 10:20:06;;;;;;;0.63;0.63;;;21.20;83.80;;;;;;4978910;28;20109;-68
2022/05/14 10:29:15;;;;;;;1.27;1.17;;;21.10;85.40;;;;;;4977072;28;20480;-66
2022/05/14 10:31:53;;;;;;;1.70;0.75;;;21.00;86.80;;;;;;4977013;28;20086;-66
2022/05/14 10:34:31;;;;;;;1.88;0.50;;;21.00;88.90;;;;;;4977254;28;20104;-66
2022/05/14 10:37:08;;;;;;;1.65;1.15;;;21.00;86.20;;;;;;4960530;28;20058;-66
2022/05/14 10:39:58;;;;;;;0.82;0.77;;;21.10;87.00;;;;;;4979415;28;20050;-66
2022/05/14 10:42:43;;;;;;;0.30;0.30;;;21.10;84.50;;;;;;4996108;28;20084;-67
2022/05/14 10:45:42;;;;;;;0.45;0.20;;;21.10;88.30;;;;;;4996430;28;20054;-68
2022/05/14 10:48:35;;;;;;;2.97;0.95;;;21.30;88.40;;;;;;4996398;28;20042;-66
2022/05/14 10:51:03;;;;;;;1.65;1.17;;;21.50;86.90;;;;;;4996250;28;20053;-67
2022/05/14 10:53:29;;;;;;;1.55;0.75;;;21.60;87.40;;;;;;4979050;28;20109;-66
2022/05/14 10:56:13;;;;;;;0.20;0.20;;;21.50;81.70;;;;;;4981285;28;20039;-67
2022/05/14 10:59:01;;;;;;;0.70;0.68;;;21.60;86.40;;;;;;4996268;28;20034;-66
2022/05/14 11:01:32;;;;;;;5.10;1.35;;;21.70;83.10;;;;;;4995956;28;20105;-66
2022/05/14 11:04:15;;;;;;;0.32;0.32;;;21.90;81.10;;;;;;4995918;28;20460;-67
2022/05/14 11:07:01;;;;;;;4.38;1.40;;;22.00;77.40;;;;;;4996012;28;20097;-67
2022/05/14 11:09:41;;;;;;;0.85;0.85;;;22.00;80.10;;;;;;4995862;28;20049;-68
2022/05/14 11:12:29;;;;;;;0.15;0.15;;;22.10;80.50;;;;;;4996152;28;20133;-68
2022/05/14 11:14:57;;;;;;;0.95;0.73;;;22.10;79.20;;;;;;4995975;28;20093;-67
2022/05/14 11:17:34;;;;;;;0.30;0.30;;;21.70;80.30;;;;;;4995289;28;20062;-68
2022/05/14 11:20:09;;;;;;;0.90;0.90;;;21.60;81.00;;;;;;4996364;28;20425;-66
2022/05/14 11:22:50;;;;;;;0.15;0.15;;;21.70;79.70;;;;;;4995941;28;20446;-66
2022/05/14 11:25:27;;;;;;;0.50;0.50;;;21.60;82.60;;;;;;4995062;28;20047;-66
2022/05/14 11:27:58;;;;;;;1.55;1.15;;;21.50;78.80;;;;;;4995692;28;20104;-68
2022/05/14 11:30:49;;;;;;;1.45;1.00;;;21.30;81.00;;;;;;4995748;28;20108;-67
2022/05/14 11:33:26;;;;;;;1.10;1.05;;;21.10;85.80;;;;;;4995739;28;20057;-66
2022/05/14 11:36:00;;;;;;;1.35;1.17;;;21.00;87.50;;;;;;4995595;28;20085;-67
2022/05/14 11:38:25;;;;;;;0.40;0.40;;;21.00;88.90;;;;;;4995249;28;20451;-67
2022/05/14 11:41:02;;;;;;;3.72;2.05;;;21.20;87.80;;;;;;4994938;28;20073;-67
2022/05/14 11:43:31;;;;;;;3.50;0.50;;;21.20;87.00;;;;;;4995098;28;20364;-67
2022/05/14 11:46:25;;;;;;;0.30;0.30;;;21.30;89.00;;;;;;4995659;28;20140;-66
2022/05/14 11:49:01;;;;;;;0.73;0.73;;;21.60;90.80;;;;;;4966737;28;20058;-66
2022/05/14 11:51:42;;;;;;;0.40;0.30;;;21.70;86.60;;;;;;4978074;28;20446;-66
2022/05/14 11:54:20;;;;;;;0.20;0.20;;;21.70;85.10;;;;;;4982171;28;20078;-67
2022/05/14 11:57:07;;;;;;;0.63;0.32;;;21.60;85.50;;;;;;4995341;28;20042;-66
2022/05/14 11:59:56;;;;;;;2.45;0.30;;;21.50;85.00;;;;;;4984963;28;20136;-67
2022/05/14 12:02:55;;;;;;;0.52;0.52;;;21.50;84.80;;;;;;4995717;28;20470;-67
2022/05/14 12:05:32;;;;;;;1.85;1.73;;;21.80;82.10;;;;;;5015174;28;20064;-67
2022/05/14 12:08:24;;;;;;;1.25;0.77;;;21.80;79.00;;;;;;4998001;28;20066;-67
2022/05/14 12:11:15;;;;;;;0.90;0.70;;;22.10;83.50;;;;;;4997354;28;20050;-67
2022/05/14 12:14:13;;;;;;;0.75;0.75;;;22.70;79.20;;;;;;5013700;28;20358;-66
2022/05/14 12:16:58;;;;;;;1.20;0.40;;;22.80;78.10;;;;;;4976350;28;20054;-68
2022/05/14 12:19:31;;;;;;;1.50;1.40;;;23.10;74.90;;;;;;4998476;28;20414;-68
2022/05/14 12:22:03;;;;;;;0.70;0.25;;;22.90;72.50;;;;;;4999041;28;20097;-68
2022/05/14 12:24:33;;;;;;;2.80;1.67;;;22.80;72.80;;;;;;4999630;28;20458;-67
2022/05/14 12:26:59;;;;;;;1.35;0.57;;;22.70;75.40;;;;;;4999139;28;20086;-70
2022/05/14 12:29:32;;;;;;;0.82;0.82;;;22.70;78.80;;;;;;4998705;28;20086;-67
2022/05/14 12:34:45;;;;;;;0.55;0.40;;;22.30;75.40;;;;;;4998691;28;20459;-69
2022/05/14 12:37:24;;;;;;;0.30;0.30;;;22.10;75.10;;;;;;5003172;28;20042;-69
2022/05/14 12:39:53;;;;;;;1.92;1.48;;;22.10;77.40;;;;;;5001492;28;20064;-70
2022/05/14 12:42:42;;;;;;;3.28;1.08;;;22.30;77.00;;;;;;5015927;28;20132;-70
2022/05/14 12:45:10;;;;;;;0.65;0.57;;;22.40;74.10;;;;;;4997676;28;20141;-69
2022/05/14 12:47:37;;;;;;;2.10;0.80;;;22.30;73.30;;;;;;4999460;28;20117;-68
2022/05/14 12:50:30;;;;;;;1.85;1.45;;;22.20;73.60;;;;;;4998734;28;20061;-70
2022/05/14 12:53:07;;;;;;;4.18;0.73;;;22.10;73.30;;;;;;4998267;28;20483;-69
2022/05/14 12:55:42;;;;;;;0.30;0.30;;;22.30;72.40;;;;;;4998472;28;20073;-69
2022/05/14 12:58:09;;;;;;;1.02;0.57;;;22.50;73.50;;;;;;4998247;28;20129;-70
2022/05/14 13:00:37;;;;;;;0.73;0.73;;;22.50;73.80;;;;;;4998261;28;20050;-69
2022/05/14 13:03:15;;;;;;;0.55;0.45;;;22.50;72.20;;;;;;4998413;28;20050;-68
2022/05/14 13:05:53;;;;;;;0.73;0.50;;;22.80;75.30;;;;;;4981164;28;20129;-70
2022/05/14 13:08:22;;;;;;;0.50;0.43;;;22.90;74.00;;;;;;4997927;28;20516;-69
2022/05/14 13:10:57;;;;;;;1.35;0.90;;;22.70;72.30;;;;;;4997984;28;20058;-67
2022/05/14 13:13:39;;;;;;;6.28;1.92;;;22.70;73.40;;;;;;5012972;28;20042;-69
2022/05/14 13:16:11;;;;;;;10.70;2.30;;;22.80;73.30;;;;;;5017587;28;20086;-69
2022/05/14 13:18:43;;;;;;;1.57;1.47;;;22.50;69.50;;;;;;5017595;28;20053;-69
2022/05/14 13:21:18;;;;;;;0.77;0.75;;;22.40;72.10;;;;;;5016485;28;20173;-69
2022/05/14 13:23:54;;;;;;;1.45;0.70;;;22.20;75.30;;;;;;5008760;28;20440;-68
2022/05/14 13:26:33;;;;;;;1.83;1.50;;;22.30;77.00;;;;;;5015507;28;20057;-68
2022/05/14 13:29:14;;;;;;;0.30;0.30;;;22.50;75.20;;;;;;4997271;28;20594;-69
2022/05/14 13:31:41;;;;;;;0.77;0.77;;;22.50;73.30;;;;;;4999681;28;20386;-68